sensor_id;sensor_type;location;lat;lon;timestamp;temperature;humidity
61896;DHT22;47835;52.778;5.956;2022-08-24T00:01:20;22.20;99.90
61896;DHT22;47835;52.778;5.956;2022-08-24T00:03:46;22.10;99.90
61896;DHT22;47835;52.778;5.956;2022-08-24T00:06:17;22.10;99.90
61896;DHT22;47835;52.778;5.956;2022-08-24T00:08:44;22.10;99.90
61896;DHT22;47835;52.778;5.956;2022-08-24T00:11:10;22.10;99.90
61896;DHT22;47835;52.778;5.956;2022-08-24T00:13:36;22.10;99.90
61896;DHT22;47835;52.778;5.956;2022-08-24T00:16:04;22.10;99.90
61896;DHT22;47835;52.778;5.956;2022-08-24T00:18:30;22.10;99.90
61896;DHT22;47835;52.778;5.956;2022-08-24T00:20:58;22.00;99.90
61896;DHT22;47835;52.778;5.956;2022-08-24T00:23:23;22.00;99.90
61896;DHT22;47835;52.778;5.956;2022-08-24T00:25:49;22.00;99.90
61896;DHT22;47835;52.778;5.956;2022-08-24T00:28:15;22.00;99.90
61896;DHT22;47835;52.778;5.956;2022-08-24T00:30:40;22.00;99.90
61896;DHT22;47835;52.778;5.956;2022-08-24T00:33:06;22.00;99.90
61896;DHT22;47835;52.778;5.956;2022-08-24T00:35:32;22.00;99.90
61896;DHT22;47835;52.778;5.956;2022-08-24T00:37:58;22.00;99.90
61896;DHT22;47835;52.778;5.956;2022-08-24T00:40:27;22.00;99.90
61896;DHT22;47835;52.778;5.956;2022-08-24T00:42:54;22.00;99.90
61896;DHT22;47835;52.778;5.956;2022-08-24T00:45:20;21.90;99.90
61896;DHT22;47835;52.778;5.956;2022-08-24T00:47:57;22.00;99.90
61896;DHT22;47835;52.778;5.956;2022-08-24T00:50:28;22.00;99.90
61896;DHT22;47835;52.778;5.956;2022-08-24T00:53:00;22.00;99.90
61896;DHT22;47835;52.778;5.956;2022-08-24T00:55:34;21.90;99.90
61896;DHT22;47835;52.778;5.956;2022-08-24T00:58:05;21.90;99.90
61896;DHT22;47835;52.778;5.956;2022-08-24T01:00:38;21.90;99.90
61896;DHT22;47835;52.778;5.956;2022-08-24T01:03:05;21.90;99.90
61896;DHT22;47835;52.778;5.956;2022-08-24T01:05:32;21.90;99.90
61896;DHT22;47835;52.778;5.956;2022-08-24T01:08:00;21.90;99.90
61896;DHT22;47835;52.778;5.956;2022-08-24T01:10:30;21.90;99.90
61896;DHT22;47835;52.778;5.956;2022-08-24T01:12:58;21.90;99.90
61896;DHT22;47835;52.778;5.956;2022-08-24T01:15:26;21.90;99.90
61896;DHT22;47835;52.778;5.956;2022-08-24T01:17:52;21.90;99.90
61896;DHT22;47835;52.778;5.956;2022-08-24T01:20:36;21.90;99.90
61896;DHT22;47835;52.778;5.956;2022-08-24T01:25:43;21.80;99.90
61896;DHT22;47835;52.778;5.956;2022-08-24T01:28:15;21.80;99.90
61896;DHT22;47835;52.778;5.956;2022-08-24T01:30:43;21.80;99.90
61896;DHT22;47835;52.778;5.956;2022-08-24T01:33:10;21.80;99.90
61896;DHT22;47835;52.778;5.956;2022-08-24T01:35:45;21.80;99.90
61896;DHT22;47835;52.778;5.956;2022-08-24T01:38:11;21.80;99.90
61896;DHT22;47835;52.778;5.956;2022-08-24T01:40:45;21.80;99.90
61896;DHT22;47835;52.778;5.956;2022-08-24T01:43:13;21.80;99.90
61896;DHT22;47835;52.778;5.956;2022-08-24T01:45:40;21.80;99.90
61896;DHT22;47835;52.778;5.956;2022-08-24T01:48:05;21.70;99.90
61896;DHT22;47835;52.778;5.956;2022-08-24T01:50:31;21.70;99.90
61896;DHT22;47835;52.778;5.956;2022-08-24T01:52:59;21.70;99.90
61896;DHT22;47835;52.778;5.956;2022-08-24T01:55:26;21.70;99.90
61896;DHT22;47835;52.778;5.956;2022-08-24T01:57:52;21.70;99.90
61896;DHT22;47835;52.778;5.956;2022-08-24T02:00:18;21.70;99.90
61896;DHT22;47835;52.778;5.956;2022-08-24T02:02:44;21.70;99.90
61896;DHT22;47835;52.778;5.956;2022-08-24T02:05:12;21.70;99.90
61896;DHT22;47835;52.778;5.956;2022-08-24T02:07:38;21.70;99.90
61896;DHT22;47835;52.778;5.956;2022-08-24T02:10:09;21.70;99.90
61896;DHT22;47835;52.778;5.956;2022-08-24T02:12:36;21.70;99.90
61896;DHT22;47835;52.778;5.956;2022-08-24T02:15:04;21.70;99.90
61896;DHT22;47835;52.778;5.956;2022-08-24T02:17:33;21.70;99.90
61896;DHT22;47835;52.778;5.956;2022-08-24T02:20:06;21.70;99.90
61896;DHT22;47835;52.778;5.956;2022-08-24T02:22:32;21.60;99.90
61896;DHT22;47835;52.778;5.956;2022-08-24T02:24:57;21.60;99.90
61896;DHT22;47835;52.778;5.956;2022-08-24T02:27:23;21.70;99.90
61896;DHT22;47835;52.778;5.956;2022-08-24T02:29:48;21.60;99.90
61896;DHT22;47835;52.778;5.956;2022-08-24T02:32:14;21.60;99.90
61896;DHT22;47835;52.778;5.956;2022-08-24T02:34:40;21.60;99.90
61896;DHT22;47835;52.778;5.956;2022-08-24T02:37:05;21.60;99.90
61896;DHT22;47835;52.778;5.956;2022-08-24T02:39:32;21.60;99.90
61896;DHT22;47835;52.778;5.956;2022-08-24T02:41:58;21.60;99.90
61896;DHT22;47835;52.778;5.956;2022-08-24T02:44:23;21.60;99.90
61896;DHT22;47835;52.778;5.956;2022-08-24T02:46:49;21.60;99.90
61896;DHT22;47835;52.778;5.956;2022-08-24T02:49:14;21.50;99.90
61896;DHT22;47835;52.778;5.956;2022-08-24T02:51:42;21.60;99.90
61896;DHT22;47835;52.778;5.956;2022-08-24T02:54:09;21.50;99.90
61896;DHT22;47835;52.778;5.956;2022-08-24T02:56:35;21.50;99.90
61896;DHT22;47835;52.778;5.956;2022-08-24T02:59:00;21.50;99.90
61896;DHT22;47835;52.778;5.956;2022-08-24T03:01:27;21.50;99.90
61896;DHT22;47835;52.778;5.956;2022-08-24T03:03:53;21.50;99.90
61896;DHT22;47835;52.778;5.956;2022-08-24T03:06:19;21.50;99.90
61896;DHT22;47835;52.778;5.956;2022-08-24T03:08:45;21.50;99.90
61896;DHT22;47835;52.778;5.956;2022-08-24T03:11:11;21.60;99.90
61896;DHT22;47835;52.778;5.956;2022-08-24T03:13:38;21.50;99.90
61896;DHT22;47835;52.778;5.956;2022-08-24T03:16:04;21.50;99.90
61896;DHT22;47835;52.778;5.956;2022-08-24T03:18:30;21.50;99.90
61896;DHT22;47835;52.778;5.956;2022-08-24T03:20:58;21.50;99.90
61896;DHT22;47835;52.778;5.956;2022-08-24T03:23:24;21.50;99.90
61896;DHT22;47835;52.778;5.956;2022-08-24T03:25:50;21.50;99.90
61896;DHT22;47835;52.778;5.956;2022-08-24T03:28:18;21.50;99.90
61896;DHT22;47835;52.778;5.956;2022-08-24T03:30:43;21.50;99.90
61896;DHT22;47835;52.778;5.956;2022-08-24T03:33:09;21.40;99.90
61896;DHT22;47835;52.778;5.956;2022-08-24T03:35:35;21.50;99.90
61896;DHT22;47835;52.778;5.956;2022-08-24T03:38:00;21.40;99.90
61896;DHT22;47835;52.778;5.956;2022-08-24T03:40:27;21.40;99.90
61896;DHT22;47835;52.778;5.956;2022-08-24T03:42:53;21.40;99.90
61896;DHT22;47835;52.778;5.956;2022-08-24T03:45:19;21.40;99.90
61896;DHT22;47835;52.778;5.956;2022-08-24T03:47:45;21.40;99.90
61896;DHT22;47835;52.778;5.956;2022-08-24T03:50:11;21.40;99.90
61896;DHT22;47835;52.778;5.956;2022-08-24T03:52:37;21.40;99.90
61896;DHT22;47835;52.778;5.956;2022-08-24T03:55:04;21.30;99.90
61896;DHT22;47835;52.778;5.956;2022-08-24T03:57:30;21.30;99.90
61896;DHT22;47835;52.778;5.956;2022-08-24T03:59:56;21.30;99.90
61896;DHT22;47835;52.778;5.956;2022-08-24T04:02:22;21.30;99.90
61896;DHT22;47835;52.778;5.956;2022-08-24T04:04:47;21.30;99.90
61896;DHT22;47835;52.778;5.956;2022-08-24T04:07:13;21.30;99.90
61896;DHT22;47835;52.778;5.956;2022-08-24T04:09:38;21.30;99.90
61896;DHT22;47835;52.778;5.956;2022-08-24T04:12:04;21.20;99.90
61896;DHT22;47835;52.778;5.956;2022-08-24T04:14:30;21.10;99.90
61896;DHT22;47835;52.778;5.956;2022-08-24T04:16:55;21.00;99.90
61896;DHT22;47835;52.778;5.956;2022-08-24T04:19:21;20.80;99.90
61896;DHT22;47835;52.778;5.956;2022-08-24T04:21:46;20.70;99.90
61896;DHT22;47835;52.778;5.956;2022-08-24T04:24:12;20.70;99.90
61896;DHT22;47835;52.778;5.956;2022-08-24T04:26:40;20.70;99.90
61896;DHT22;47835;52.778;5.956;2022-08-24T04:29:07;20.70;99.90
61896;DHT22;47835;52.778;5.956;2022-08-24T04:31:37;20.70;99.90
61896;DHT22;47835;52.778;5.956;2022-08-24T04:34:03;20.70;99.90
61896;DHT22;47835;52.778;5.956;2022-08-24T04:36:29;20.60;99.90
61896;DHT22;47835;52.778;5.956;2022-08-24T04:38:54;20.70;99.90
61896;DHT22;47835;52.778;5.956;2022-08-24T04:41:20;20.60;99.90
61896;DHT22;47835;52.778;5.956;2022-08-24T04:43:47;20.70;99.90
61896;DHT22;47835;52.778;5.956;2022-08-24T04:46:15;20.80;99.90
61896;DHT22;47835;52.778;5.956;2022-08-24T04:48:43;20.80;99.90
61896;DHT22;47835;52.778;5.956;2022-08-24T04:51:10;20.80;99.90
61896;DHT22;47835;52.778;5.956;2022-08-24T04:53:36;20.90;99.90
61896;DHT22;47835;52.778;5.956;2022-08-24T04:56:03;20.90;99.90
61896;DHT22;47835;52.778;5.956;2022-08-24T04:58:33;20.90;99.90
61896;DHT22;47835;52.778;5.956;2022-08-24T05:00:59;20.90;99.90
61896;DHT22;47835;52.778;5.956;2022-08-24T05:03:25;20.90;99.90
61896;DHT22;47835;52.778;5.956;2022-08-24T05:05:50;20.90;99.90
61896;DHT22;47835;52.778;5.956;2022-08-24T05:08:18;20.90;99.90
61896;DHT22;47835;52.778;5.956;2022-08-24T05:10:45;20.90;99.90
61896;DHT22;47835;52.778;5.956;2022-08-24T05:13:12;20.90;99.90
61896;DHT22;47835;52.778;5.956;2022-08-24T05:15:42;20.90;99.90
61896;DHT22;47835;52.778;5.956;2022-08-24T05:18:11;20.80;99.90
61896;DHT22;47835;52.778;5.956;2022-08-24T05:20:47;20.80;99.90
61896;DHT22;47835;52.778;5.956;2022-08-24T05:23:13;20.70;99.90
61896;DHT22;47835;52.778;5.956;2022-08-24T05:25:39;20.60;99.90
61896;DHT22;47835;52.778;5.956;2022-08-24T05:31:13;20.50;99.90
61896;DHT22;47835;52.778;5.956;2022-08-24T05:33:39;20.40;99.90
61896;DHT22;47835;52.778;5.956;2022-08-24T05:36:12;20.40;99.90
61896;DHT22;47835;52.778;5.956;2022-08-24T05:38:38;20.40;99.90
61896;DHT22;47835;52.778;5.956;2022-08-24T05:41:04;20.30;99.90
61896;DHT22;47835;52.778;5.956;2022-08-24T05:43:30;20.30;99.90
61896;DHT22;47835;52.778;5.956;2022-08-24T05:45:55;20.30;99.90
61896;DHT22;47835;52.778;5.956;2022-08-24T05:48:21;20.40;99.90
61896;DHT22;47835;52.778;5.956;2022-08-24T05:50:54;20.50;99.90
61896;DHT22;47835;52.778;5.956;2022-08-24T05:53:20;20.60;99.90
61896;DHT22;47835;52.778;5.956;2022-08-24T05:55:46;20.60;99.90
61896;DHT22;47835;52.778;5.956;2022-08-24T05:58:12;20.70;99.90
61896;DHT22;47835;52.778;5.956;2022-08-24T06:00:38;20.70;99.90
61896;DHT22;47835;52.778;5.956;2022-08-24T06:03:03;20.80;99.90
61896;DHT22;47835;52.778;5.956;2022-08-24T06:05:29;20.90;99.90
61896;DHT22;47835;52.778;5.956;2022-08-24T06:07:55;20.90;99.90
61896;DHT22;47835;52.778;5.956;2022-08-24T06:10:20;21.00;99.90
61896;DHT22;47835;52.778;5.956;2022-08-24T06:12:46;21.10;99.90
61896;DHT22;47835;52.778;5.956;2022-08-24T06:15:13;21.10;99.90
61896;DHT22;47835;52.778;5.956;2022-08-24T06:17:38;21.10;99.90
61896;DHT22;47835;52.778;5.956;2022-08-24T06:20:05;21.20;99.90
61896;DHT22;47835;52.778;5.956;2022-08-24T06:22:32;21.20;99.90
61896;DHT22;47835;52.778;5.956;2022-08-24T06:24:57;21.20;99.90
61896;DHT22;47835;52.778;5.956;2022-08-24T06:27:41;21.30;99.90
61896;DHT22;47835;52.778;5.956;2022-08-24T06:30:08;21.30;99.90
61896;DHT22;47835;52.778;5.956;2022-08-24T06:32:35;21.40;99.90
61896;DHT22;47835;52.778;5.956;2022-08-24T06:35:01;21.40;99.90
61896;DHT22;47835;52.778;5.956;2022-08-24T06:37:27;21.40;99.90
61896;DHT22;47835;52.778;5.956;2022-08-24T06:39:54;21.40;99.90
61896;DHT22;47835;52.778;5.956;2022-08-24T06:42:20;21.50;99.90
61896;DHT22;47835;52.778;5.956;2022-08-24T06:44:47;21.50;99.90
61896;DHT22;47835;52.778;5.956;2022-08-24T06:47:25;21.50;99.90
61896;DHT22;47835;52.778;5.956;2022-08-24T06:50:12;21.50;99.90
61896;DHT22;47835;52.778;5.956;2022-08-24T06:52:38;21.60;99.90
61896;DHT22;47835;52.778;5.956;2022-08-24T06:55:05;21.60;99.90
61896;DHT22;47835;52.778;5.956;2022-08-24T06:57:31;21.60;99.90
61896;DHT22;47835;52.778;5.956;2022-08-24T06:59:56;21.60;99.90
61896;DHT22;47835;52.778;5.956;2022-08-24T07:02:22;21.70;99.90
61896;DHT22;47835;52.778;5.956;2022-08-24T07:04:48;21.70;99.90
61896;DHT22;47835;52.778;5.956;2022-08-24T07:07:15;21.70;99.90
61896;DHT22;47835;52.778;5.956;2022-08-24T07:09:41;21.80;99.90
61896;DHT22;47835;52.778;5.956;2022-08-24T07:12:06;21.80;99.90
61896;DHT22;47835;52.778;5.956;2022-08-24T07:14:32;21.80;99.90
61896;DHT22;47835;52.778;5.956;2022-08-24T07:16:58;21.80;99.90
61896;DHT22;47835;52.778;5.956;2022-08-24T07:19:24;21.80;99.90
61896;DHT22;47835;52.778;5.956;2022-08-24T07:21:49;21.90;99.90
61896;DHT22;47835;52.778;5.956;2022-08-24T07:24:15;21.90;99.90
61896;DHT22;47835;52.778;5.956;2022-08-24T07:26:41;21.90;99.90
61896;DHT22;47835;52.778;5.956;2022-08-24T07:29:12;21.90;99.90
61896;DHT22;47835;52.778;5.956;2022-08-24T07:31:40;21.90;99.90
61896;DHT22;47835;52.778;5.956;2022-08-24T07:34:07;21.90;99.90
61896;DHT22;47835;52.778;5.956;2022-08-24T07:36:35;21.90;99.90
61896;DHT22;47835;52.778;5.956;2022-08-24T07:39:01;21.90;99.90
61896;DHT22;47835;52.778;5.956;2022-08-24T07:41:27;22.00;99.90
61896;DHT22;47835;52.778;5.956;2022-08-24T07:43:54;22.00;99.90
61896;DHT22;47835;52.778;5.956;2022-08-24T07:46:20;22.00;99.90
61896;DHT22;47835;52.778;5.956;2022-08-24T07:48:46;22.00;99.90
61896;DHT22;47835;52.778;5.956;2022-08-24T07:51:16;22.00;99.90
61896;DHT22;47835;52.778;5.956;2022-08-24T07:53:42;22.00;99.90
61896;DHT22;47835;52.778;5.956;2022-08-24T07:56:08;22.00;99.90
61896;DHT22;47835;52.778;5.956;2022-08-24T07:58:34;22.00;99.90
61896;DHT22;47835;52.778;5.956;2022-08-24T08:01:01;22.10;99.90
61896;DHT22;47835;52.778;5.956;2022-08-24T08:03:26;22.10;99.90
61896;DHT22;47835;52.778;5.956;2022-08-24T08:05:57;22.10;99.90
61896;DHT22;47835;52.778;5.956;2022-08-24T08:08:25;22.10;99.90
61896;DHT22;47835;52.778;5.956;2022-08-24T08:10:51;22.10;99.90
61896;DHT22;47835;52.778;5.956;2022-08-24T08:13:17;22.10;99.90
61896;DHT22;47835;52.778;5.956;2022-08-24T08:15:43;22.10;99.90
61896;DHT22;47835;52.778;5.956;2022-08-24T08:18:09;22.20;99.90
61896;DHT22;47835;52.778;5.956;2022-08-24T08:20:36;22.20;99.90
61896;DHT22;47835;52.778;5.956;2022-08-24T08:23:02;22.20;99.90
61896;DHT22;47835;52.778;5.956;2022-08-24T08:25:48;22.20;99.90
61896;DHT22;47835;52.778;5.956;2022-08-24T08:28:14;22.20;99.90
61896;DHT22;47835;52.778;5.956;2022-08-24T08:30:40;22.20;99.90
61896;DHT22;47835;52.778;5.956;2022-08-24T08:33:06;22.20;99.90
61896;DHT22;47835;52.778;5.956;2022-08-24T08:35:32;22.20;99.90
61896;DHT22;47835;52.778;5.956;2022-08-24T08:37:59;22.30;99.90
61896;DHT22;47835;52.778;5.956;2022-08-24T08:40:53;22.20;99.90
61896;DHT22;47835;52.778;5.956;2022-08-24T08:43:53;22.30;99.90
61896;DHT22;47835;52.778;5.956;2022-08-24T08:46:39;22.30;99.90
61896;DHT22;47835;52.778;5.956;2022-08-24T09:01:13;22.30;99.90
61896;DHT22;47835;52.778;5.956;2022-08-24T09:06:38;22.30;99.90
61896;DHT22;47835;52.778;5.956;2022-08-24T09:14:34;22.30;99.90
61896;DHT22;47835;52.778;5.956;2022-08-24T09:20:11;22.40;99.90
61896;DHT22;47835;52.778;5.956;2022-08-24T09:22:45;22.40;99.90
61896;DHT22;47835;52.778;5.956;2022-08-24T09:25:23;22.40;99.90
61896;DHT22;47835;52.778;5.956;2022-08-24T09:28:31;22.40;99.90
61896;DHT22;47835;52.778;5.956;2022-08-24T09:34:26;22.40;99.90
61896;DHT22;47835;52.778;5.956;2022-08-24T09:37:02;22.40;99.90
61896;DHT22;47835;52.778;5.956;2022-08-24T09:42:34;22.40;99.90
61896;DHT22;47835;52.778;5.956;2022-08-24T09:45:11;22.40;99.90
61896;DHT22;47835;52.778;5.956;2022-08-24T09:48:17;22.40;99.90
61896;DHT22;47835;52.778;5.956;2022-08-24T09:57:06;22.50;99.90
61896;DHT22;47835;52.778;5.956;2022-08-24T10:05:17;22.40;99.90
61896;DHT22;47835;52.778;5.956;2022-08-24T10:08:12;22.40;99.90
61896;DHT22;47835;52.778;5.956;2022-08-24T10:13:32;22.40;99.90
61896;DHT22;47835;52.778;5.956;2022-08-24T10:19:15;22.50;99.90
61896;DHT22;47835;52.778;5.956;2022-08-24T10:22:01;22.50;99.90
61896;DHT22;47835;52.778;5.956;2022-08-24T10:30:08;22.60;99.90
61896;DHT22;47835;52.778;5.956;2022-08-24T10:41:49;22.60;99.90
61896;DHT22;47835;52.778;5.956;2022-08-24T10:44:45;22.60;99.90
61896;DHT22;47835;52.778;5.956;2022-08-24T10:47:23;22.60;99.90
61896;DHT22;47835;52.778;5.956;2022-08-24T10:50:15;22.60;99.90
61896;DHT22;47835;52.778;5.956;2022-08-24T10:53:05;22.60;99.90
61896;DHT22;47835;52.778;5.956;2022-08-24T10:55:37;22.60;99.90
61896;DHT22;47835;52.778;5.956;2022-08-24T11:00:38;22.60;99.90
61896;DHT22;47835;52.778;5.956;2022-08-24T11:03:17;22.60;99.90
61896;DHT22;47835;52.778;5.956;2022-08-24T11:05:53;22.60;99.90
61896;DHT22;47835;52.778;5.956;2022-08-24T11:08:28;22.60;99.90
61896;DHT22;47835;52.778;5.956;2022-08-24T11:11:13;22.60;99.90
61896;DHT22;47835;52.778;5.956;2022-08-24T11:13:56;22.60;99.90
61896;DHT22;47835;52.778;5.956;2022-08-24T11:16:37;22.60;99.90
61896;DHT22;47835;52.778;5.956;2022-08-24T11:19:51;22.60;99.90
61896;DHT22;47835;52.778;5.956;2022-08-24T11:21:58;22.60;99.90
61896;DHT22;47835;52.778;5.956;2022-08-24T11:24:45;22.50;99.90
61896;DHT22;47835;52.778;5.956;2022-08-24T11:35:01;22.60;99.90
61896;DHT22;47835;52.778;5.956;2022-08-24T11:37:32;22.60;99.90
61896;DHT22;47835;52.778;5.956;2022-08-24T11:39:59;22.60;99.90
61896;DHT22;47835;52.778;5.956;2022-08-24T11:42:51;22.60;99.90
61896;DHT22;47835;52.778;5.956;2022-08-24T11:45:29;22.60;99.90
61896;DHT22;47835;52.778;5.956;2022-08-24T11:48:29;22.60;99.90
61896;DHT22;47835;52.778;5.956;2022-08-24T11:51:13;22.60;99.90
61896;DHT22;47835;52.778;5.956;2022-08-24T11:54:18;22.60;99.90
61896;DHT22;47835;52.778;5.956;2022-08-24T12:02:33;22.60;99.90
61896;DHT22;47835;52.778;5.956;2022-08-24T12:05:26;22.60;99.90
61896;DHT22;47835;52.778;5.956;2022-08-24T12:10:42;22.60;99.90
61896;DHT22;47835;52.778;5.956;2022-08-24T12:16:03;22.70;99.90
61896;DHT22;47835;52.778;5.956;2022-08-24T12:21:21;22.60;99.90
61896;DHT22;47835;52.778;5.956;2022-08-24T12:23:56;22.70;99.90
61896;DHT22;47835;52.778;5.956;2022-08-24T12:26:46;22.70;99.90
61896;DHT22;47835;52.778;5.956;2022-08-24T12:29:51;22.70;99.90
61896;DHT22;47835;52.778;5.956;2022-08-24T12:32:49;22.70;99.90
61896;DHT22;47835;52.778;5.956;2022-08-24T12:38:02;22.70;99.90
61896;DHT22;47835;52.778;5.956;2022-08-24T12:40:37;22.70;99.90
61896;DHT22;47835;52.778;5.956;2022-08-24T12:43:13;22.70;99.90
61896;DHT22;47835;52.778;5.956;2022-08-24T12:45:43;22.70;99.90
61896;DHT22;47835;52.778;5.956;2022-08-24T12:48:19;22.70;99.90
61896;DHT22;47835;52.778;5.956;2022-08-24T13:01:19;22.80;99.90
61896;DHT22;47835;52.778;5.956;2022-08-24T13:03:49;22.80;99.90
61896;DHT22;47835;52.778;5.956;2022-08-24T13:09:13;22.80;99.90
61896;DHT22;47835;52.778;5.956;2022-08-24T13:11:39;22.80;99.90
61896;DHT22;47835;52.778;5.956;2022-08-24T13:14:19;22.80;99.90
61896;DHT22;47835;52.778;5.956;2022-08-24T13:21:59;22.80;99.90
61896;DHT22;47835;52.778;5.956;2022-08-24T13:30:25;22.90;99.90
61896;DHT22;47835;52.778;5.956;2022-08-24T13:32:38;22.90;99.90
61896;DHT22;47835;52.778;5.956;2022-08-24T13:40:52;22.90;99.90
61896;DHT22;47835;52.778;5.956;2022-08-24T13:43:31;22.90;99.90
61896;DHT22;47835;52.778;5.956;2022-08-24T13:48:59;22.90;99.90
61896;DHT22;47835;52.778;5.956;2022-08-24T13:51:41;22.90;99.90
61896;DHT22;47835;52.778;5.956;2022-08-24T13:54:20;22.90;99.90
61896;DHT22;47835;52.778;5.956;2022-08-24T14:05:39;22.90;99.90
61896;DHT22;47835;52.778;5.956;2022-08-24T14:08:14;22.90;99.90
61896;DHT22;47835;52.778;5.956;2022-08-24T14:11:05;22.90;99.90
61896;DHT22;47835;52.778;5.956;2022-08-24T14:14:01;23.00;99.90
61896;DHT22;47835;52.778;5.956;2022-08-24T14:25:36;23.00;99.90
61896;DHT22;47835;52.778;5.956;2022-08-24T14:28:40;23.00;99.90
61896;DHT22;47835;52.778;5.956;2022-08-24T14:34:21;23.00;99.90
61896;DHT22;47835;52.778;5.956;2022-08-24T14:40:02;23.00;99.90
61896;DHT22;47835;52.778;5.956;2022-08-24T14:42:45;23.00;99.90
61896;DHT22;47835;52.778;5.956;2022-08-24T14:51:25;23.00;99.90
61896;DHT22;47835;52.778;5.956;2022-08-24T15:02:26;23.10;99.90
61896;DHT22;47835;52.778;5.956;2022-08-24T15:08:26;23.10;99.90
61896;DHT22;47835;52.778;5.956;2022-08-24T15:10:44;23.20;99.90
61896;DHT22;47835;52.778;5.956;2022-08-24T15:13:42;23.20;99.90
61896;DHT22;47835;52.778;5.956;2022-08-24T15:16:13;23.30;99.90
61896;DHT22;47835;52.778;5.956;2022-08-24T15:18:53;23.30;99.90
61896;DHT22;47835;52.778;5.956;2022-08-24T15:24:04;23.40;99.90
61896;DHT22;47835;52.778;5.956;2022-08-24T15:27:01;23.40;99.90
61896;DHT22;47835;52.778;5.956;2022-08-24T15:29:33;23.40;99.90
61896;DHT22;47835;52.778;5.956;2022-08-24T15:32:08;23.40;99.90
61896;DHT22;47835;52.778;5.956;2022-08-24T15:34:51;23.50;99.90
61896;DHT22;47835;52.778;5.956;2022-08-24T15:37:28;23.50;99.90
61896;DHT22;47835;52.778;5.956;2022-08-24T15:39:55;23.50;99.90
61896;DHT22;47835;52.778;5.956;2022-08-24T15:42:20;23.50;99.90
61896;DHT22;47835;52.778;5.956;2022-08-24T15:44:47;23.50;99.90
61896;DHT22;47835;52.778;5.956;2022-08-24T15:47:30;23.50;99.90
61896;DHT22;47835;52.778;5.956;2022-08-24T15:50:04;23.50;99.90
61896;DHT22;47835;52.778;5.956;2022-08-24T15:55:03;23.50;99.90
61896;DHT22;47835;52.778;5.956;2022-08-24T15:57:35;23.50;99.90
61896;DHT22;47835;52.778;5.956;2022-08-24T16:00:12;23.60;99.90
61896;DHT22;47835;52.778;5.956;2022-08-24T16:02:39;23.60;99.90
61896;DHT22;47835;52.778;5.956;2022-08-24T16:10:56;23.60;99.90
61896;DHT22;47835;52.778;5.956;2022-08-24T16:13:32;23.60;99.90
61896;DHT22;47835;52.778;5.956;2022-08-24T16:16:02;23.60;99.90
61896;DHT22;47835;52.778;5.956;2022-08-24T16:18:48;23.50;99.90
61896;DHT22;47835;52.778;5.956;2022-08-24T16:21:42;23.50;99.90
61896;DHT22;47835;52.778;5.956;2022-08-24T16:32:39;23.50;99.90
61896;DHT22;47835;52.778;5.956;2022-08-24T16:37:32;23.60;99.90
61896;DHT22;47835;52.778;5.956;2022-08-24T16:39:58;23.60;99.90
61896;DHT22;47835;52.778;5.956;2022-08-24T16:42:26;23.60;99.90
61896;DHT22;47835;52.778;5.956;2022-08-24T16:44:53;23.60;99.90
61896;DHT22;47835;52.778;5.956;2022-08-24T16:47:20;23.60;99.90
61896;DHT22;47835;52.778;5.956;2022-08-24T16:49:46;23.60;99.90
61896;DHT22;47835;52.778;5.956;2022-08-24T16:52:12;23.50;99.90
61896;DHT22;47835;52.778;5.956;2022-08-24T16:54:38;23.50;99.90
61896;DHT22;47835;52.778;5.956;2022-08-24T16:57:13;23.50;99.90
61896;DHT22;47835;52.778;5.956;2022-08-24T16:59:42;23.50;99.90
61896;DHT22;47835;52.778;5.956;2022-08-24T17:02:09;23.50;99.90
61896;DHT22;47835;52.778;5.956;2022-08-24T17:04:36;23.50;99.90
61896;DHT22;47835;52.778;5.956;2022-08-24T17:07:03;23.50;99.90
61896;DHT22;47835;52.778;5.956;2022-08-24T17:09:29;23.60;99.90
61896;DHT22;47835;52.778;5.956;2022-08-24T17:11:55;23.60;99.90
61896;DHT22;47835;52.778;5.956;2022-08-24T17:14:41;23.60;99.90
61896;DHT22;47835;52.778;5.956;2022-08-24T17:17:11;23.70;99.90
61896;DHT22;47835;52.778;5.956;2022-08-24T17:19:38;23.70;99.90
61896;DHT22;47835;52.778;5.956;2022-08-24T17:22:05;23.70;99.90
61896;DHT22;47835;52.778;5.956;2022-08-24T17:24:31;23.70;99.90
61896;DHT22;47835;52.778;5.956;2022-08-24T17:26:58;23.70;99.90
61896;DHT22;47835;52.778;5.956;2022-08-24T17:29:24;23.70;99.90
61896;DHT22;47835;52.778;5.956;2022-08-24T17:31:50;23.80;99.90
61896;DHT22;47835;52.778;5.956;2022-08-24T17:34:17;23.80;99.90
61896;DHT22;47835;52.778;5.956;2022-08-24T17:36:49;23.80;99.90
61896;DHT22;47835;52.778;5.956;2022-08-24T17:39:16;23.80;99.90
61896;DHT22;47835;52.778;5.956;2022-08-24T17:41:42;23.80;99.90
61896;DHT22;47835;52.778;5.956;2022-08-24T17:44:12;23.80;99.90
61896;DHT22;47835;52.778;5.956;2022-08-24T17:46:39;23.80;99.90
61896;DHT22;47835;52.778;5.956;2022-08-24T17:49:06;23.80;99.90
61896;DHT22;47835;52.778;5.956;2022-08-24T17:51:32;23.80;99.90
61896;DHT22;47835;52.778;5.956;2022-08-24T17:53:58;23.80;99.90
61896;DHT22;47835;52.778;5.956;2022-08-24T17:56:26;23.80;99.90
61896;DHT22;47835;52.778;5.956;2022-08-24T17:58:51;23.80;99.90
61896;DHT22;47835;52.778;5.956;2022-08-24T18:01:36;23.90;99.90
61896;DHT22;47835;52.778;5.956;2022-08-24T18:04:02;23.90;99.90
61896;DHT22;47835;52.778;5.956;2022-08-24T18:06:28;23.90;99.90
61896;DHT22;47835;52.778;5.956;2022-08-24T18:08:54;23.90;99.90
61896;DHT22;47835;52.778;5.956;2022-08-24T18:11:23;23.90;99.90
61896;DHT22;47835;52.778;5.956;2022-08-24T18:13:49;23.90;99.90
61896;DHT22;47835;52.778;5.956;2022-08-24T18:16:17;23.90;99.90
61896;DHT22;47835;52.778;5.956;2022-08-24T18:18:43;23.90;99.90
61896;DHT22;47835;52.778;5.956;2022-08-24T18:21:09;23.90;99.90
61896;DHT22;47835;52.778;5.956;2022-08-24T18:23:35;23.90;99.90
61896;DHT22;47835;52.778;5.956;2022-08-24T18:26:00;23.90;99.90
61896;DHT22;47835;52.778;5.956;2022-08-24T18:28:26;23.90;99.90
61896;DHT22;47835;52.778;5.956;2022-08-24T18:30:51;23.90;99.90
61896;DHT22;47835;52.778;5.956;2022-08-24T18:33:17;23.90;99.90
61896;DHT22;47835;52.778;5.956;2022-08-24T18:35:43;23.90;99.90
61896;DHT22;47835;52.778;5.956;2022-08-24T18:38:10;23.90;99.90
61896;DHT22;47835;52.778;5.956;2022-08-24T18:40:36;23.90;99.90
61896;DHT22;47835;52.778;5.956;2022-08-24T18:43:02;23.90;99.90
61896;DHT22;47835;52.778;5.956;2022-08-24T18:45:30;24.00;99.90
61896;DHT22;47835;52.778;5.956;2022-08-24T18:47:56;24.00;99.90
61896;DHT22;47835;52.778;5.956;2022-08-24T18:50:21;24.00;99.90
61896;DHT22;47835;52.778;5.956;2022-08-24T18:52:47;24.00;99.90
61896;DHT22;47835;52.778;5.956;2022-08-24T18:55:13;24.00;99.90
61896;DHT22;47835;52.778;5.956;2022-08-24T18:57:39;24.00;99.90
61896;DHT22;47835;52.778;5.956;2022-08-24T19:00:06;24.10;99.90
61896;DHT22;47835;52.778;5.956;2022-08-24T19:02:34;24.10;99.90